sensor_id;sensor_type;location;lat;lon;timestamp;P1;durP1;ratioP1;P2;durP2;ratioP2
14396;SDS011;50653;47.810;13.022;2023-04-10T00:00:41;18.40;;;15.17;;
14396;SDS011;50653;47.810;13.022;2023-04-10T00:03:09;26.10;;;15.60;;
14396;SDS011;50653;47.810;13.022;2023-04-10T00:05:35;17.90;;;14.88;;
14396;SDS011;50653;47.810;13.022;2023-04-10T00:08:01;17.55;;;15.18;;
14396;SDS011;50653;47.810;13.022;2023-04-10T00:10:27;16.80;;;14.90;;
14396;SDS011;50653;47.810;13.022;2023-04-10T00:12:55;17.27;;;15.50;;
14396;SDS011;50653;47.810;13.022;2023-04-10T00:15:22;16.30;;;14.70;;
14396;SDS011;50653;47.810;13.022;2023-04-10T00:17:47;13.53;;;12.13;;
14396;SDS011;50653;47.810;13.022;2023-04-10T00:20:18;17.60;;;13.40;;
14396;SDS011;50653;47.810;13.022;2023-04-10T00:22:47;14.23;;;12.83;;
14396;SDS011;50653;47.810;13.022;2023-04-10T00:25:13;15.10;;;13.50;;
14396;SDS011;50653;47.810;13.022;2023-04-10T00:27:39;15.67;;;13.77;;
14396;SDS011;50653;47.810;13.022;2023-04-10T00:30:05;17.10;;;14.63;;
14396;SDS011;50653;47.810;13.022;2023-04-10T00:32:31;17.38;;;15.45;;
14396;SDS011;50653;47.810;13.022;2023-04-10T00:34:57;16.83;;;15.03;;
14396;SDS011;50653;47.810;13.022;2023-04-10T00:37:23;19.90;;;17.05;;
14396;SDS011;50653;47.810;13.022;2023-04-10T00:39:48;16.75;;;14.60;;
14396;SDS011;50653;47.810;13.022;2023-04-10T00:42:14;18.48;;;16.48;;
14396;SDS011;50653;47.810;13.022;2023-04-10T00:44:40;17.85;;;15.88;;
14396;SDS011;50653;47.810;13.022;2023-04-10T00:47:06;17.13;;;15.02;;
14396;SDS011;50653;47.810;13.022;2023-04-10T00:49:32;18.20;;;15.63;;
14396;SDS011;50653;47.810;13.022;2023-04-10T00:51:58;17.00;;;15.30;;
14396;SDS011;50653;47.810;13.022;2023-04-10T00:54:24;17.10;;;15.40;;
14396;SDS011;50653;47.810;13.022;2023-04-10T00:56:51;16.87;;;13.90;;
14396;SDS011;50653;47.810;13.022;2023-04-10T00:59:17;16.57;;;14.17;;
14396;SDS011;50653;47.810;13.022;2023-04-10T01:01:43;14.77;;;13.20;;
14396;SDS011;50653;47.810;13.022;2023-04-10T01:04:08;20.47;;;15.57;;
14396;SDS011;50653;47.810;13.022;2023-04-10T01:06:46;15.70;;;14.10;;
14396;SDS011;50653;47.810;13.022;2023-04-10T01:09:34;15.45;;;13.57;;
14396;SDS011;50653;47.810;13.022;2023-04-10T01:12:15;17.17;;;15.38;;
14396;SDS011;50653;47.810;13.022;2023-04-10T01:14:48;16.63;;;14.75;;
14396;SDS011;50653;47.810;13.022;2023-04-10T01:17:28;14.20;;;12.20;;
14396;SDS011;50653;47.810;13.022;2023-04-10T01:27:45;15.15;;;13.65;;
14396;SDS011;50653;47.810;13.022;2023-04-10T01:30:22;17.23;;;15.40;;
14396;SDS011;50653;47.810;13.022;2023-04-10T01:32:49;16.27;;;14.53;;
14396;SDS011;50653;47.810;13.022;2023-04-10T01:35:19;17.73;;;14.47;;
14396;SDS011;50653;47.810;13.022;2023-04-10T01:37:45;13.20;;;11.90;;
14396;SDS011;50653;47.810;13.022;2023-04-10T01:40:14;14.93;;;12.73;;
14396;SDS011;50653;47.810;13.022;2023-04-10T01:42:47;14.95;;;13.35;;
14396;SDS011;50653;47.810;13.022;2023-04-10T01:45:19;15.63;;;14.03;;
14396;SDS011;50653;47.810;13.022;2023-04-10T01:47:50;16.52;;;14.30;;
14396;SDS011;50653;47.810;13.022;2023-04-10T01:50:16;16.10;;;14.48;;
14396;SDS011;50653;47.810;13.022;2023-04-10T01:52:44;16.20;;;14.50;;
14396;SDS011;50653;47.810;13.022;2023-04-10T01:55:22;15.80;;;14.20;;
14396;SDS011;50653;47.810;13.022;2023-04-10T01:57:53;16.38;;;14.68;;
14396;SDS011;50653;47.810;13.022;2023-04-10T02:00:20;17.20;;;15.38;;
14396;SDS011;50653;47.810;13.022;2023-04-10T02:02:46;17.05;;;14.95;;
14396;SDS011;50653;47.810;13.022;2023-04-10T02:05:12;15.57;;;13.90;;
14396;SDS011;50653;47.810;13.022;2023-04-10T02:07:56;14.68;;;13.18;;
14396;SDS011;50653;47.810;13.022;2023-04-10T02:10:27;15.63;;;14.05;;
14396;SDS011;50653;47.810;13.022;2023-04-10T02:12:59;16.17;;;14.45;;
14396;SDS011;50653;47.810;13.022;2023-04-10T02:15:29;17.45;;;15.25;;
14396;SDS011;50653;47.810;13.022;2023-04-10T02:17:57;16.05;;;14.45;;
14396;SDS011;50653;47.810;13.022;2023-04-10T02:20:24;16.02;;;14.07;;
14396;SDS011;50653;47.810;13.022;2023-04-10T02:22:51;15.50;;;13.55;;
14396;SDS011;50653;47.810;13.022;2023-04-10T02:25:18;16.75;;;13.50;;
14396;SDS011;50653;47.810;13.022;2023-04-10T02:27:43;16.63;;;14.43;;
14396;SDS011;50653;47.810;13.022;2023-04-10T02:30:09;13.50;;;12.20;;
14396;SDS011;50653;47.810;13.022;2023-04-10T02:32:36;16.93;;;13.23;;
14396;SDS011;50653;47.810;13.022;2023-04-10T02:35:01;16.13;;;13.67;;
14396;SDS011;50653;47.810;13.022;2023-04-10T02:37:28;13.93;;;12.50;;
14396;SDS011;50653;47.810;13.022;2023-04-10T02:39:56;14.83;;;12.13;;
14396;SDS011;50653;47.810;13.022;2023-04-10T02:42:23;13.00;;;11.60;;
14396;SDS011;50653;47.810;13.022;2023-04-10T02:44:51;14.87;;;12.60;;
14396;SDS011;50653;47.810;13.022;2023-04-10T02:47:17;16.33;;;12.27;;
14396;SDS011;50653;47.810;13.022;2023-04-10T02:49:44;12.13;;;10.90;;
14396;SDS011;50653;47.810;13.022;2023-04-10T02:52:13;13.10;;;11.80;;
14396;SDS011;50653;47.810;13.022;2023-04-10T02:54:39;13.40;;;12.00;;
14396;SDS011;50653;47.810;13.022;2023-04-10T02:57:05;14.80;;;11.73;;
14396;SDS011;50653;47.810;13.022;2023-04-10T02:59:31;14.67;;;12.30;;
14396;SDS011;50653;47.810;13.022;2023-04-10T03:01:59;13.77;;;12.40;;
14396;SDS011;50653;47.810;13.022;2023-04-10T03:04:25;14.17;;;11.63;;
14396;SDS011;50653;47.810;13.022;2023-04-10T03:06:50;14.63;;;12.50;;
14396;SDS011;50653;47.810;13.022;2023-04-10T03:09:16;15.10;;;12.50;;
14396;SDS011;50653;47.810;13.022;2023-04-10T03:11:41;14.20;;;12.70;;
14396;SDS011;50653;47.810;13.022;2023-04-10T03:14:07;15.87;;;11.50;;
14396;SDS011;50653;47.810;13.022;2023-04-10T03:16:36;14.60;;;10.27;;
14396;SDS011;50653;47.810;13.022;2023-04-10T03:19:02;14.35;;;12.70;;
14396;SDS011;50653;47.810;13.022;2023-04-10T03:21:28;14.93;;;13.43;;
14396;SDS011;50653;47.810;13.022;2023-04-10T03:23:54;15.13;;;11.80;;
14396;SDS011;50653;47.810;13.022;2023-04-10T03:26:20;13.00;;;10.87;;
14396;SDS011;50653;47.810;13.022;2023-04-10T03:28:48;13.53;;;11.80;;
14396;SDS011;50653;47.810;13.022;2023-04-10T03:31:13;15.07;;;12.33;;
14396;SDS011;50653;47.810;13.022;2023-04-10T03:33:41;12.50;;;11.30;;
14396;SDS011;50653;47.810;13.022;2023-04-10T03:36:07;12.70;;;10.00;;
14396;SDS011;50653;47.810;13.022;2023-04-10T03:38:33;13.30;;;12.00;;
14396;SDS011;50653;47.810;13.022;2023-04-10T03:41:00;11.73;;;10.10;;
14396;SDS011;50653;47.810;13.022;2023-04-10T03:43:28;11.00;;;9.77;;
14396;SDS011;50653;47.810;13.022;2023-04-10T03:45:55;11.63;;;9.40;;
14396;SDS011;50653;47.810;13.022;2023-04-10T03:48:21;10.30;;;9.20;;
14396;SDS011;50653;47.810;13.022;2023-04-10T03:50:47;13.73;;;11.03;;
14396;SDS011;50653;47.810;13.022;2023-04-10T03:53:14;12.33;;;10.50;;
14396;SDS011;50653;47.810;13.022;2023-04-10T03:55:41;12.15;;;10.95;;
14396;SDS011;50653;47.810;13.022;2023-04-10T03:58:07;14.20;;;10.97;;
14396;SDS011;50653;47.810;13.022;2023-04-10T04:00:34;10.53;;;9.53;;
14396;SDS011;50653;47.810;13.022;2023-04-10T04:03:10;13.53;;;11.37;;
14396;SDS011;50653;47.810;13.022;2023-04-10T04:05:54;14.30;;;11.47;;
14396;SDS011;50653;47.810;13.022;2023-04-10T04:08:42;10.83;;;9.73;;
14396;SDS011;50653;47.810;13.022;2023-04-10T04:11:27;12.23;;;10.93;;
14396;SDS011;50653;47.810;13.022;2023-04-10T04:13:59;13.37;;;12.07;;
14396;SDS011;50653;47.810;13.022;2023-04-10T04:16:42;11.03;;;9.93;;
14396;SDS011;50653;47.810;13.022;2023-04-10T04:19:22;17.47;;;11.33;;
14396;SDS011;50653;47.810;13.022;2023-04-10T04:22:26;17.90;;;12.83;;
14396;SDS011;50653;47.810;13.022;2023-04-10T04:25:08;14.37;;;12.27;;
14396;SDS011;50653;47.810;13.022;2023-04-10T04:27:52;12.40;;;11.00;;
14396;SDS011;50653;47.810;13.022;2023-04-10T04:30:56;14.10;;;12.70;;
14396;SDS011;50653;47.810;13.022;2023-04-10T04:33:41;17.03;;;13.10;;
14396;SDS011;50653;47.810;13.022;2023-04-10T04:36:34;16.77;;;12.17;;
14396;SDS011;50653;47.810;13.022;2023-04-10T04:39:20;13.77;;;12.27;;
14396;SDS011;50653;47.810;13.022;2023-04-10T04:42:00;13.63;;;10.33;;
14396;SDS011;50653;47.810;13.022;2023-04-10T04:44:48;13.30;;;11.80;;
14396;SDS011;50653;47.810;13.022;2023-04-10T04:47:43;13.27;;;11.83;;
14396;SDS011;50653;47.810;13.022;2023-04-10T04:50:19;14.63;;;11.70;;
14396;SDS011;50653;47.810;13.022;2023-04-10T04:53:01;16.43;;;13.37;;
14396;SDS011;50653;47.810;13.022;2023-04-10T04:55:49;15.10;;;10.90;;
14396;SDS011;50653;47.810;13.022;2023-04-10T04:58:40;14.70;;;13.20;;
14396;SDS011;50653;47.810;13.022;2023-04-10T05:01:31;13.87;;;11.37;;
14396;SDS011;50653;47.810;13.022;2023-04-10T05:04:18;12.40;;;11.07;;
14396;SDS011;50653;47.810;13.022;2023-04-10T05:07:05;13.30;;;11.90;;
14396;SDS011;50653;47.810;13.022;2023-04-10T05:09:50;15.38;;;12.95;;
14396;SDS011;50653;47.810;13.022;2023-04-10T05:12:35;14.27;;;10.53;;
14396;SDS011;50653;47.810;13.022;2023-04-10T05:15:15;15.13;;;12.83;;
14396;SDS011;50653;47.810;13.022;2023-04-10T05:17:48;16.03;;;11.87;;
14396;SDS011;50653;47.810;13.022;2023-04-10T05:20:35;12.07;;;10.77;;
14396;SDS011;50653;47.810;13.022;2023-04-10T05:23:09;12.37;;;10.63;;
14396;SDS011;50653;47.810;13.022;2023-04-10T05:25:57;13.10;;;11.40;;
14396;SDS011;50653;47.810;13.022;2023-04-10T05:28:42;11.87;;;10.67;;
14396;SDS011;50653;47.810;13.022;2023-04-10T05:31:23;11.63;;;10.17;;
14396;SDS011;50653;47.810;13.022;2023-04-10T05:34:06;12.80;;;10.77;;
14396;SDS011;50653;47.810;13.022;2023-04-10T05:36:50;12.60;;;10.20;;
14396;SDS011;50653;47.810;13.022;2023-04-10T05:39:21;11.30;;;10.30;;
14396;SDS011;50653;47.810;13.022;2023-04-10T05:42:09;11.67;;;10.37;;
14396;SDS011;50653;47.810;13.022;2023-04-10T05:44:45;29.27;;;14.50;;
14396;SDS011;50653;47.810;13.022;2023-04-10T05:47:30;13.73;;;10.57;;
14396;SDS011;50653;47.810;13.022;2023-04-10T05:50:16;13.50;;;11.13;;
14396;SDS011;50653;47.810;13.022;2023-04-10T05:53:01;17.23;;;10.40;;
14396;SDS011;50653;47.810;13.022;2023-04-10T05:55:49;14.73;;;12.73;;
14396;SDS011;50653;47.810;13.022;2023-04-10T05:58:38;14.10;;;11.80;;
14396;SDS011;50653;47.810;13.022;2023-04-10T06:01:09;13.80;;;12.40;;
14396;SDS011;50653;47.810;13.022;2023-04-10T06:03:45;11.30;;;10.17;;
14396;SDS011;50653;47.810;13.022;2023-04-10T06:06:12;12.03;;;9.73;;
14396;SDS011;50653;47.810;13.022;2023-04-10T06:08:39;10.33;;;9.23;;
14396;SDS011;50653;47.810;13.022;2023-04-10T06:11:04;13.65;;;11.48;;
14396;SDS011;50653;47.810;13.022;2023-04-10T06:13:30;13.47;;;10.73;;
14396;SDS011;50653;47.810;13.022;2023-04-10T06:15:58;10.43;;;8.97;;
14396;SDS011;50653;47.810;13.022;2023-04-10T06:18:24;13.73;;;10.98;;
14396;SDS011;50653;47.810;13.022;2023-04-10T06:20:50;12.75;;;11.45;;
14396;SDS011;50653;47.810;13.022;2023-04-10T06:23:18;14.25;;;12.88;;
14396;SDS011;50653;47.810;13.022;2023-04-10T06:25:43;14.73;;;11.33;;
14396;SDS011;50653;47.810;13.022;2023-04-10T06:28:09;10.33;;;9.07;;
14396;SDS011;50653;47.810;13.022;2023-04-10T06:30:34;13.43;;;11.53;;
14396;SDS011;50653;47.810;13.022;2023-04-10T06:33:02;12.37;;;11.20;;
14396;SDS011;50653;47.810;13.022;2023-04-10T06:35:30;12.67;;;11.40;;
14396;SDS011;50653;47.810;13.022;2023-04-10T06:37:56;13.07;;;10.37;;
14396;SDS011;50653;47.810;13.022;2023-04-10T06:40:23;13.23;;;11.85;;
14396;SDS011;50653;47.810;13.022;2023-04-10T06:42:48;12.98;;;11.77;;
14396;SDS011;50653;47.810;13.022;2023-04-10T06:45:23;13.93;;;12.63;;
14396;SDS011;50653;47.810;13.022;2023-04-10T06:47:48;13.68;;;12.27;;
14396;SDS011;50653;47.810;13.022;2023-04-10T06:50:14;10.70;;;9.63;;
14396;SDS011;50653;47.810;13.022;2023-04-10T06:52:40;10.07;;;9.07;;
14396;SDS011;50653;47.810;13.022;2023-04-10T06:55:07;13.87;;;11.33;;
14396;SDS011;50653;47.810;13.022;2023-04-10T06:57:33;11.57;;;10.20;;
14396;SDS011;50653;47.810;13.022;2023-04-10T06:59:58;10.47;;;9.40;;
14396;SDS011;50653;47.810;13.022;2023-04-10T07:02:24;13.70;;;11.00;;
14396;SDS011;50653;47.810;13.022;2023-04-10T07:04:49;10.50;;;8.97;;
14396;SDS011;50653;47.810;13.022;2023-04-10T07:07:15;11.30;;;10.10;;
14396;SDS011;50653;47.810;13.022;2023-04-10T07:09:43;9.40;;;8.53;;
14396;SDS011;50653;47.810;13.022;2023-04-10T07:12:08;9.10;;;8.10;;
14396;SDS011;50653;47.810;13.022;2023-04-10T07:14:34;12.03;;;8.87;;
14396;SDS011;50653;47.810;13.022;2023-04-10T07:17:00;11.37;;;9.17;;
14396;SDS011;50653;47.810;13.022;2023-04-10T07:19:27;9.07;;;8.17;;
14396;SDS011;50653;47.810;13.022;2023-04-10T07:21:53;10.57;;;9.03;;
14396;SDS011;50653;47.810;13.022;2023-04-10T07:24:18;8.17;;;7.37;;
14396;SDS011;50653;47.810;13.022;2023-04-10T07:26:44;11.23;;;8.30;;
14396;SDS011;50653;47.810;13.022;2023-04-10T07:29:10;7.60;;;7.00;;
14396;SDS011;50653;47.810;13.022;2023-04-10T07:31:36;11.50;;;8.00;;
14396;SDS011;50653;47.810;13.022;2023-04-10T07:34:02;10.10;;;9.10;;
14396;SDS011;50653;47.810;13.022;2023-04-10T07:36:28;8.87;;;7.93;;
14396;SDS011;50653;47.810;13.022;2023-04-10T07:38:54;10.97;;;8.33;;
14396;SDS011;50653;47.810;13.022;2023-04-10T07:41:20;8.40;;;7.60;;
14396;SDS011;50653;47.810;13.022;2023-04-10T07:43:46;10.70;;;8.03;;
14396;SDS011;50653;47.810;13.022;2023-04-10T07:46:12;7.73;;;6.93;;
14396;SDS011;50653;47.810;13.022;2023-04-10T07:48:38;10.43;;;8.60;;
14396;SDS011;50653;47.810;13.022;2023-04-10T07:51:04;12.70;;;9.67;;
14396;SDS011;50653;47.810;13.022;2023-04-10T07:53:33;9.00;;;7.97;;
14396;SDS011;50653;47.810;13.022;2023-04-10T07:56:02;11.07;;;7.50;;
14396;SDS011;50653;47.810;13.022;2023-04-10T07:58:28;12.17;;;9.60;;
14396;SDS011;50653;47.810;13.022;2023-04-10T08:00:53;8.53;;;7.63;;
14396;SDS011;50653;47.810;13.022;2023-04-10T08:03:19;10.03;;;7.53;;
14396;SDS011;50653;47.810;13.022;2023-04-10T08:05:45;8.03;;;6.97;;
14396;SDS011;50653;47.810;13.022;2023-04-10T08:08:11;10.00;;;8.90;;
14396;SDS011;50653;47.810;13.022;2023-04-10T08:10:36;16.17;;;10.37;;
14396;SDS011;50653;47.810;13.022;2023-04-10T08:13:03;7.83;;;7.00;;
14396;SDS011;50653;47.810;13.022;2023-04-10T08:15:29;7.30;;;6.80;;
14396;SDS011;50653;47.810;13.022;2023-04-10T08:17:55;6.90;;;6.33;;
14396;SDS011;50653;47.810;13.022;2023-04-10T08:20:21;6.43;;;5.63;;
14396;SDS011;50653;47.810;13.022;2023-04-10T08:22:47;5.67;;;5.13;;
14396;SDS011;50653;47.810;13.022;2023-04-10T08:25:13;6.27;;;5.77;;
14396;SDS011;50653;47.810;13.022;2023-04-10T08:27:39;7.65;;;6.95;;
14396;SDS011;50653;47.810;13.022;2023-04-10T08:30:05;7.65;;;7.10;;
14396;SDS011;50653;47.810;13.022;2023-04-10T08:32:31;6.80;;;6.20;;
14396;SDS011;50653;47.810;13.022;2023-04-10T08:34:57;7.60;;;7.00;;
14396;SDS011;50653;47.810;13.022;2023-04-10T08:37:24;7.82;;;7.15;;
14396;SDS011;50653;47.810;13.022;2023-04-10T08:39:50;6.97;;;6.38;;
14396;SDS011;50653;47.810;13.022;2023-04-10T08:42:16;5.97;;;5.40;;
14396;SDS011;50653;47.810;13.022;2023-04-10T08:44:42;6.60;;;6.10;;
14396;SDS011;50653;47.810;13.022;2023-04-10T08:47:08;5.63;;;5.20;;
14396;SDS011;50653;47.810;13.022;2023-04-10T08:49:45;7.00;;;6.40;;
14396;SDS011;50653;47.810;13.022;2023-04-10T08:52:22;7.53;;;5.87;;
14396;SDS011;50653;47.810;13.022;2023-04-10T08:54:52;6.07;;;5.43;;
14396;SDS011;50653;47.810;13.022;2023-04-10T08:57:19;6.27;;;5.87;;
14396;SDS011;50653;47.810;13.022;2023-04-10T08:59:46;7.50;;;6.80;;
14396;SDS011;50653;47.810;13.022;2023-04-10T09:02:13;6.43;;;5.83;;
14396;SDS011;50653;47.810;13.022;2023-04-10T09:04:39;9.00;;;7.90;;
14396;SDS011;50653;47.810;13.022;2023-04-10T09:07:09;7.13;;;6.43;;
14396;SDS011;50653;47.810;13.022;2023-04-10T09:09:35;6.93;;;6.30;;
14396;SDS011;50653;47.810;13.022;2023-04-10T09:12:00;6.03;;;5.63;;
14396;SDS011;50653;47.810;13.022;2023-04-10T09:14:31;7.00;;;6.40;;
14396;SDS011;50653;47.810;13.022;2023-04-10T09:19:53;9.00;;;7.90;;
14396;SDS011;50653;47.810;13.022;2023-04-10T09:22:32;8.60;;;7.90;;
14396;SDS011;50653;47.810;13.022;2023-04-10T09:24:59;8.10;;;7.50;;
14396;SDS011;50653;47.810;13.022;2023-04-10T09:27:26;6.87;;;6.20;;
14396;SDS011;50653;47.810;13.022;2023-04-10T09:29:53;6.83;;;6.23;;
14396;SDS011;50653;47.810;13.022;2023-04-10T09:35:05;7.30;;;6.80;;
14396;SDS011;50653;47.810;13.022;2023-04-10T09:37:33;8.00;;;7.20;;
14396;SDS011;50653;47.810;13.022;2023-04-10T09:39:59;7.73;;;6.93;;
14396;SDS011;50653;47.810;13.022;2023-04-10T09:42:35;6.77;;;6.10;;
14396;SDS011;50653;47.810;13.022;2023-04-10T09:45:01;6.83;;;6.13;;
14396;SDS011;50653;47.810;13.022;2023-04-10T09:47:28;8.77;;;7.87;;
14396;SDS011;50653;47.810;13.022;2023-04-10T09:49:55;7.40;;;6.70;;
14396;SDS011;50653;47.810;13.022;2023-04-10T09:52:25;7.73;;;6.73;;
14396;SDS011;50653;47.810;13.022;2023-04-10T09:57:21;7.90;;;7.20;;
14396;SDS011;50653;47.810;13.022;2023-04-10T09:59:49;8.23;;;7.30;;
14396;SDS011;50653;47.810;13.022;2023-04-10T10:02:16;7.57;;;6.53;;
14396;SDS011;50653;47.810;13.022;2023-04-10T10:04:43;7.13;;;6.43;;
14396;SDS011;50653;47.810;13.022;2023-04-10T10:07:16;6.13;;;5.73;;
14396;SDS011;50653;47.810;13.022;2023-04-10T10:09:46;5.73;;;5.33;;
14396;SDS011;50653;47.810;13.022;2023-04-10T10:12:28;6.90;;;6.20;;
14396;SDS011;50653;47.810;13.022;2023-04-10T10:18:12;4.77;;;4.47;;
14396;SDS011;50653;47.810;13.022;2023-04-10T10:21:06;5.73;;;5.30;;
14396;SDS011;50653;47.810;13.022;2023-04-10T10:23:33;5.70;;;5.20;;
14396;SDS011;50653;47.810;13.022;2023-04-10T10:26:00;4.90;;;4.60;;
14396;SDS011;50653;47.810;13.022;2023-04-10T10:28:30;5.30;;;4.80;;
14396;SDS011;50653;47.810;13.022;2023-04-10T10:30:58;5.20;;;4.90;;
14396;SDS011;50653;47.810;13.022;2023-04-10T10:33:25;4.80;;;4.53;;
14396;SDS011;50653;47.810;13.022;2023-04-10T10:35:53;5.63;;;5.20;;
14396;SDS011;50653;47.810;13.022;2023-04-10T10:38:24;5.90;;;5.33;;
14396;SDS011;50653;47.810;13.022;2023-04-10T10:40:53;4.97;;;4.57;;
14396;SDS011;50653;47.810;13.022;2023-04-10T10:46:21;5.00;;;4.60;;
14396;SDS011;50653;47.810;13.022;2023-04-10T10:48:56;4.80;;;4.50;;
14396;SDS011;50653;47.810;13.022;2023-04-10T10:51:23;5.27;;;4.97;;
14396;SDS011;50653;47.810;13.022;2023-04-10T10:56:58;4.70;;;4.40;;
14396;SDS011;50653;47.810;13.022;2023-04-10T11:02:14;5.97;;;5.50;;
14396;SDS011;50653;47.810;13.022;2023-04-10T11:04:44;3.93;;;3.73;;
14396;SDS011;50653;47.810;13.022;2023-04-10T11:07:11;5.13;;;4.73;;
14396;SDS011;50653;47.810;13.022;2023-04-10T11:09:48;4.50;;;4.20;;
14396;SDS011;50653;47.810;13.022;2023-04-10T11:12:17;4.23;;;3.93;;
14396;SDS011;50653;47.810;13.022;2023-04-10T11:14:55;4.47;;;4.17;;
14396;SDS011;50653;47.810;13.022;2023-04-10T11:20:15;5.43;;;5.13;;
14396;SDS011;50653;47.810;13.022;2023-04-10T11:25:51;3.97;;;3.77;;
14396;SDS011;50653;47.810;13.022;2023-04-10T11:31:11;4.50;;;4.30;;
14396;SDS011;50653;47.810;13.022;2023-04-10T11:33:46;4.72;;;4.32;;
14396;SDS011;50653;47.810;13.022;2023-04-10T11:36:13;4.55;;;4.35;;
14396;SDS011;50653;47.810;13.022;2023-04-10T11:38:52;3.95;;;3.75;;
14396;SDS011;50653;47.810;13.022;2023-04-10T11:41:19;4.67;;;4.37;;
14396;SDS011;50653;47.810;13.022;2023-04-10T11:43:45;4.37;;;4.17;;
14396;SDS011;50653;47.810;13.022;2023-04-10T11:46:15;3.83;;;3.53;;
14396;SDS011;50653;47.810;13.022;2023-04-10T11:48:41;4.63;;;4.33;;
14396;SDS011;50653;47.810;13.022;2023-04-10T11:51:07;4.07;;;3.67;;
14396;SDS011;50653;47.810;13.022;2023-04-10T11:53:34;4.20;;;3.90;;
14396;SDS011;50653;47.810;13.022;2023-04-10T11:56:00;3.77;;;3.57;;
14396;SDS011;50653;47.810;13.022;2023-04-10T11:58:27;3.50;;;3.30;;
14396;SDS011;50653;47.810;13.022;2023-04-10T12:06:05;3.57;;;3.37;;
14396;SDS011;50653;47.810;13.022;2023-04-10T12:08:36;3.83;;;3.60;;
14396;SDS011;50653;47.810;13.022;2023-04-10T12:11:07;4.10;;;3.83;;
14396;SDS011;50653;47.810;13.022;2023-04-10T12:13:34;3.43;;;3.23;;
14396;SDS011;50653;47.810;13.022;2023-04-10T12:16:01;3.90;;;3.70;;
14396;SDS011;50653;47.810;13.022;2023-04-10T12:18:29;3.83;;;3.53;;
14396;SDS011;50653;47.810;13.022;2023-04-10T12:20:56;4.03;;;3.83;;
14396;SDS011;50653;47.810;13.022;2023-04-10T12:23:23;4.20;;;3.80;;
14396;SDS011;50653;47.810;13.022;2023-04-10T12:25:50;4.37;;;4.07;;
14396;SDS011;50653;47.810;13.022;2023-04-10T12:28:20;3.13;;;2.93;;
14396;SDS011;50653;47.810;13.022;2023-04-10T12:30:46;3.90;;;3.60;;
14396;SDS011;50653;47.810;13.022;2023-04-10T12:33:20;6.67;;;4.07;;
14396;SDS011;50653;47.810;13.022;2023-04-10T12:35:49;3.47;;;3.27;;
14396;SDS011;50653;47.810;13.022;2023-04-10T12:41:07;3.83;;;3.63;;
14396;SDS011;50653;47.810;13.022;2023-04-10T12:43:36;3.20;;;3.00;;
14396;SDS011;50653;47.810;13.022;2023-04-10T12:46:04;4.57;;;4.17;;
14396;SDS011;50653;47.810;13.022;2023-04-10T12:48:31;3.37;;;3.17;;
14396;SDS011;50653;47.810;13.022;2023-04-10T12:50:57;3.23;;;3.03;;
14396;SDS011;50653;47.810;13.022;2023-04-10T12:53:23;3.77;;;3.53;;
14396;SDS011;50653;47.810;13.022;2023-04-10T12:55:59;11.20;;;9.43;;
14396;SDS011;50653;47.810;13.022;2023-04-10T12:58:30;4.70;;;4.40;;
14396;SDS011;50653;47.810;13.022;2023-04-10T13:01:06;4.33;;;3.93;;
14396;SDS011;50653;47.810;13.022;2023-04-10T13:03:33;3.57;;;3.37;;
14396;SDS011;50653;47.810;13.022;2023-04-10T13:06:03;3.90;;;3.70;;
14396;SDS011;50653;47.810;13.022;2023-04-10T13:10:14;4.10;;;3.90;;
14396;SDS011;50653;47.810;13.022;2023-04-10T13:12:40;4.57;;;4.17;;
14396;SDS011;50653;47.810;13.022;2023-04-10T13:15:07;3.40;;;3.10;;
14396;SDS011;50653;47.810;13.022;2023-04-10T13:17:34;2.97;;;2.87;;
14396;SDS011;50653;47.810;13.022;2023-04-10T13:20:00;2.80;;;2.60;;
14396;SDS011;50653;47.810;13.022;2023-04-10T13:22:26;3.10;;;2.90;;
14396;SDS011;50653;47.810;13.022;2023-04-10T13:24:51;2.87;;;2.67;;
14396;SDS011;50653;47.810;13.022;2023-04-10T13:27:17;4.40;;;4.00;;
14396;SDS011;50653;47.810;13.022;2023-04-10T13:29:42;3.83;;;3.63;;
14396;SDS011;50653;47.810;13.022;2023-04-10T13:32:08;3.67;;;3.47;;
14396;SDS011;50653;47.810;13.022;2023-04-10T13:34:34;3.70;;;3.40;;
14396;SDS011;50653;47.810;13.022;2023-04-10T13:37:00;3.17;;;2.97;;
14396;SDS011;50653;47.810;13.022;2023-04-10T13:39:27;3.40;;;3.20;;
14396;SDS011;50653;47.810;13.022;2023-04-10T13:41:53;3.13;;;3.03;;
14396;SDS011;50653;47.810;13.022;2023-04-10T13:44:19;4.30;;;3.90;;
14396;SDS011;50653;47.810;13.022;2023-04-10T13:46:45;3.23;;;2.93;;
14396;SDS011;50653;47.810;13.022;2023-04-10T13:49:11;3.23;;;3.07;;
14396;SDS011;50653;47.810;13.022;2023-04-10T13:51:41;4.30;;;3.80;;
14396;SDS011;50653;47.810;13.022;2023-04-10T13:54:06;2.93;;;2.73;;
14396;SDS011;50653;47.810;13.022;2023-04-10T13:56:34;3.20;;;3.00;;
14396;SDS011;50653;47.810;13.022;2023-04-10T13:59:00;3.63;;;3.43;;
14396;SDS011;50653;47.810;13.022;2023-04-10T14:01:25;3.73;;;3.47;;
14396;SDS011;50653;47.810;13.022;2023-04-10T14:03:51;3.17;;;3.07;;
14396;SDS011;50653;47.810;13.022;2023-04-10T14:06:16;3.17;;;2.97;;
14396;SDS011;50653;47.810;13.022;2023-04-10T14:08:42;3.23;;;3.03;;
14396;SDS011;50653;47.810;13.022;2023-04-10T14:11:08;2.70;;;2.57;;
14396;SDS011;50653;47.810;13.022;2023-04-10T14:13:33;2.53;;;2.33;;
14396;SDS011;50653;47.810;13.022;2023-04-10T14:15:59;3.40;;;3.20;;
14396;SDS011;50653;47.810;13.022;2023-04-10T14:18:25;3.80;;;3.57;;
14396;SDS011;50653;47.810;13.022;2023-04-10T14:20:51;3.57;;;3.40;;
14396;SDS011;50653;47.810;13.022;2023-04-10T14:23:16;3.10;;;2.90;;
14396;SDS011;50653;47.810;13.022;2023-04-10T14:25:45;3.03;;;2.83;;
14396;SDS011;50653;47.810;13.022;2023-04-10T14:28:11;3.43;;;3.23;;
14396;SDS011;50653;47.810;13.022;2023-04-10T14:30:46;3.33;;;3.13;;
14396;SDS011;50653;47.810;13.022;2023-04-10T14:33:13;3.57;;;3.17;;
14396;SDS011;50653;47.810;13.022;2023-04-10T14:35:39;2.67;;;2.47;;
14396;SDS011;50653;47.810;13.022;2023-04-10T14:38:05;3.27;;;3.07;;
14396;SDS011;50653;47.810;13.022;2023-04-10T14:40:31;3.10;;;2.90;;
14396;SDS011;50653;47.810;13.022;2023-04-10T14:42:57;3.93;;;3.63;;
14396;SDS011;50653;47.810;13.022;2023-04-10T14:45:23;2.90;;;2.80;;
14396;SDS011;50653;47.810;13.022;2023-04-10T14:47:50;3.00;;;2.80;;
14396;SDS011;50653;47.810;13.022;2023-04-10T14:50:17;3.40;;;3.03;;
14396;SDS011;50653;47.810;13.022;2023-04-10T14:52:42;4.37;;;4.10;;
14396;SDS011;50653;47.810;13.022;2023-04-10T14:55:08;2.70;;;2.60;;
14396;SDS011;50653;47.810;13.022;2023-04-10T14:57:34;3.10;;;3.00;;
14396;SDS011;50653;47.810;13.022;2023-04-10T15:00:00;3.10;;;2.90;;
14396;SDS011;50653;47.810;13.022;2023-04-10T15:02:26;3.45;;;3.25;;
14396;SDS011;50653;47.810;13.022;2023-04-10T15:04:53;3.60;;;3.40;;
14396;SDS011;50653;47.810;13.022;2023-04-10T15:07:19;4.03;;;3.73;;
14396;SDS011;50653;47.810;13.022;2023-04-10T15:09:45;2.90;;;2.70;;
14396;SDS011;50653;47.810;13.022;2023-04-10T15:12:11;2.40;;;2.30;;
14396;SDS011;50653;47.810;13.022;2023-04-10T15:14:40;3.20;;;3.00;;
14396;SDS011;50653;47.810;13.022;2023-04-10T15:17:06;3.10;;;3.00;;
14396;SDS011;50653;47.810;13.022;2023-04-10T15:19:32;3.30;;;3.10;;
14396;SDS011;50653;47.810;13.022;2023-04-10T15:21:57;4.03;;;3.73;;